createdAt,value
2023-04-23T00:01:14.045Z,12.90
2023-04-23T00:02:37.633Z,12.90
2023-04-23T00:04:01.072Z,12.80
2023-04-23T00:05:27.647Z,12.80
2023-04-23T00:06:51.590Z,12.80
2023-04-23T00:08:15.800Z,12.80
2023-04-23T00:09:38.713Z,12.80
2023-04-23T00:11:01.625Z,12.80
2023-04-23T00:12:24.324Z,12.70
2023-04-23T00:13:47.412Z,12.70
2023-04-23T00:15:10.216Z,12.80
2023-04-23T00:16:32.767Z,12.80
2023-04-23T00:17:54.841Z,12.80
2023-04-23T00:19:16.921Z,12.80
2023-04-23T00:20:39.135Z,12.80
2023-04-23T00:22:01.599Z,12.80
2023-04-23T00:23:23.643Z,12.80
2023-04-23T00:24:45.955Z,12.70
2023-04-23T00:26:07.987Z,12.70
2023-04-23T00:27:30.379Z,12.70
2023-04-23T00:28:52.428Z,12.70
2023-04-23T00:30:14.679Z,12.70
2023-04-23T00:31:36.737Z,12.70
2023-04-23T00:32:58.880Z,12.70
2023-04-23T00:34:21.015Z,12.70
2023-04-23T00:35:43.085Z,12.70
2023-04-23T00:37:06.892Z,12.60
2023-04-23T00:38:28.941Z,12.60
2023-04-23T00:39:50.975Z,12.60
2023-04-23T00:41:13.552Z,12.60
2023-04-23T00:42:36.333Z,12.50
2023-04-23T00:43:59.359Z,12.60
2023-04-23T00:45:21.551Z,12.60
2023-04-23T00:46:43.935Z,12.60
2023-04-23T00:48:07.049Z,12.60
2023-04-23T00:49:29.624Z,12.60
2023-04-23T00:51:00.512Z,12.60
2023-04-23T00:52:22.673Z,12.60
2023-04-23T00:53:44.743Z,12.60
2023-04-23T00:55:08.451Z,12.60
2023-04-23T00:56:30.573Z,12.60
2023-04-23T00:57:54.115Z,12.60
2023-04-23T00:59:16.231Z,12.60
2023-04-23T01:00:46.575Z,12.60
2023-04-23T01:02:08.723Z,12.60
2023-04-23T01:03:32.219Z,12.60
2023-04-23T01:04:55.214Z,12.50
2023-04-23T01:06:17.709Z,12.50
2023-04-23T01:07:40.719Z,12.50
2023-04-23T01:09:03.630Z,12.50
2023-04-23T01:10:25.830Z,12.50
2023-04-23T01:11:50.922Z,12.50
2023-04-23T01:13:15.985Z,12.50
2023-04-23T01:14:39.031Z,12.50
2023-04-23T01:16:01.950Z,12.40
2023-04-23T01:17:24.124Z,12.40
2023-04-23T01:18:46.205Z,12.40
2023-04-23T01:20:09.633Z,12.40
2023-04-23T01:21:32.364Z,12.40
2023-04-23T01:22:54.746Z,12.40
2023-04-23T01:24:16.817Z,12.50
2023-04-23T01:25:39.288Z,12.50
2023-04-23T01:27:01.610Z,12.50
2023-04-23T01:28:23.761Z,12.50
2023-04-23T01:29:47.102Z,12.50
2023-04-23T01:31:09.590Z,12.50
2023-04-23T01:32:32.583Z,12.50
2023-04-23T01:33:55.599Z,12.50
2023-04-23T01:35:18.084Z,12.50
2023-04-23T01:36:41.672Z,12.50
2023-04-23T01:38:04.970Z,12.50
2023-04-23T01:39:27.061Z,12.50
2023-04-23T01:40:49.143Z,12.50
2023-04-23T01:42:11.472Z,12.50
2023-04-23T01:43:33.819Z,12.50
2023-04-23T01:44:55.823Z,12.50
2023-04-23T01:46:18.099Z,12.50
2023-04-23T01:47:41.946Z,12.50
2023-04-23T01:49:04.405Z,12.50
2023-04-23T01:50:27.898Z,12.50
2023-04-23T01:51:50.012Z,12.50
2023-04-23T01:53:12.183Z,12.50
2023-04-23T01:54:34.270Z,12.50
2023-04-23T01:55:57.088Z,12.50
2023-04-23T01:57:26.381Z,12.50
2023-04-23T01:58:48.547Z,12.50
2023-04-23T02:00:12.750Z,12.50
2023-04-23T02:01:48.037Z,12.50
2023-04-23T02:03:10.421Z,12.50
2023-04-23T02:04:34.119Z,12.50
2023-04-23T02:05:56.808Z,12.50
2023-04-23T02:07:19.144Z,12.50
2023-04-23T02:08:41.233Z,12.50
2023-04-23T02:10:04.104Z,12.40
2023-04-23T02:11:26.259Z,12.40
2023-04-23T02:12:48.474Z,12.40
2023-04-23T02:14:11.125Z,12.40
2023-04-23T02:15:33.214Z,12.40
2023-04-23T02:16:56.696Z,12.30
2023-04-23T02:18:18.821Z,12.30
2023-04-23T02:19:40.947Z,12.30
2023-04-23T02:21:03.757Z,12.30
2023-04-23T02:22:26.665Z,12.30
2023-04-23T02:23:48.812Z,12.20
2023-04-23T02:25:11.126Z,12.20
2023-04-23T02:26:33.293Z,12.20
2023-04-23T02:27:57.315Z,12.20
2023-04-23T02:29:19.413Z,12.20
2023-04-23T02:30:47.756Z,12.20
2023-04-23T02:32:09.864Z,12.20
2023-04-23T02:33:32.508Z,12.30
2023-04-23T02:34:54.656Z,12.30
2023-04-23T02:36:17.023Z,12.30
2023-04-23T02:37:39.803Z,12.30
2023-04-23T02:39:01.938Z,12.30
2023-04-23T02:40:24.162Z,12.30
2023-04-23T02:41:46.267Z,12.30
2023-04-23T02:43:08.796Z,12.40
2023-04-23T02:44:30.936Z,12.40
2023-04-23T02:45:53.024Z,12.50
2023-04-23T02:47:15.117Z,12.50
2023-04-23T02:48:39.992Z,12.60
2023-04-23T02:50:05.810Z,12.60
2023-04-23T02:51:27.881Z,12.70
2023-04-23T02:52:49.982Z,12.70
2023-04-23T02:54:12.265Z,12.70
2023-04-23T02:55:34.333Z,12.70
2023-04-23T02:56:57.545Z,12.70
2023-04-23T02:58:19.651Z,12.80
2023-04-23T02:59:41.905Z,12.70
2023-04-23T03:01:05.381Z,12.80
2023-04-23T03:02:27.602Z,12.80
2023-04-23T03:03:50.071Z,12.80
2023-04-23T03:05:12.745Z,12.80
2023-04-23T03:06:36.881Z,12.80
2023-04-23T03:07:58.993Z,12.90
2023-04-23T03:09:21.065Z,12.90
2023-04-23T03:10:43.163Z,12.90
2023-04-23T03:12:05.346Z,12.90
2023-04-23T03:13:27.424Z,12.90
2023-04-23T03:14:49.624Z,12.90
2023-04-23T03:16:11.884Z,12.90
2023-04-23T03:17:34.384Z,12.90
2023-04-23T03:18:56.741Z,12.90
2023-04-23T03:20:19.167Z,12.90
2023-04-23T03:21:41.276Z,12.90
2023-04-23T03:23:06.365Z,12.90
2023-04-23T03:24:31.779Z,13.00
2023-04-23T03:26:59.064Z,12.90
2023-04-23T03:28:21.228Z,12.90
2023-04-23T03:29:43.301Z,12.90
2023-04-23T03:31:05.485Z,13.00
2023-04-23T03:32:27.806Z,13.00
2023-04-23T03:33:49.989Z,12.90
2023-04-23T03:35:12.134Z,13.00
2023-04-23T03:36:34.284Z,12.90
2023-04-23T03:37:56.411Z,13.00
2023-04-23T03:39:18.617Z,13.00
2023-04-23T03:40:40.735Z,13.00
2023-04-23T03:42:02.889Z,13.00
2023-04-23T03:43:25.577Z,12.90
2023-04-23T03:44:47.625Z,12.90
2023-04-23T03:46:09.682Z,13.00
2023-04-23T03:47:31.802Z,12.90
2023-04-23T03:48:53.909Z,13.00
2023-04-23T03:50:17.445Z,13.00
2023-04-23T03:51:39.579Z,13.00
2023-04-23T03:53:01.770Z,13.00
2023-04-23T03:54:25.777Z,13.00
2023-04-23T03:55:50.302Z,13.00
2023-04-23T03:57:12.472Z,13.00
2023-04-23T03:58:34.515Z,13.10
2023-04-23T03:59:56.628Z,13.10
2023-04-23T04:01:18.728Z,13.10
2023-04-23T04:02:41.171Z,13.10
2023-04-23T04:04:03.421Z,13.10
2023-04-23T04:05:25.624Z,13.10
2023-04-23T04:06:47.819Z,13.10
2023-04-23T04:08:09.854Z,13.10
2023-04-23T04:09:31.869Z,13.10
2023-04-23T04:10:54.004Z,13.10
2023-04-23T04:12:16.808Z,13.10
2023-04-23T04:13:38.852Z,13.10
2023-04-23T04:15:02.879Z,13.10
2023-04-23T04:16:25.110Z,13.10
2023-04-23T04:17:47.485Z,13.10
2023-04-23T04:19:09.837Z,13.10
2023-04-23T04:20:31.885Z,13.20
2023-04-23T04:21:53.881Z,13.20
2023-04-23T04:23:16.012Z,13.20
2023-04-23T04:24:38.347Z,13.20
2023-04-23T04:26:00.578Z,13.20
2023-04-23T04:27:22.666Z,13.20
2023-04-23T04:28:45.419Z,13.20
2023-04-23T04:30:08.988Z,13.20
2023-04-23T04:31:32.238Z,13.20
2023-04-23T04:32:54.695Z,13.20
2023-04-23T04:34:17.876Z,13.20
2023-04-23T04:35:39.906Z,13.20
2023-04-23T04:37:02.151Z,13.20
2023-04-23T04:38:24.196Z,13.20
2023-04-23T04:39:46.756Z,13.20
2023-04-23T04:41:09.059Z,13.20
2023-04-23T04:42:31.468Z,13.20
2023-04-23T04:43:58.517Z,13.20
2023-04-23T04:45:20.641Z,13.20
2023-04-23T04:46:42.994Z,13.20
2023-04-23T04:48:05.356Z,13.20
2023-04-23T04:49:27.446Z,13.20
2023-04-23T04:50:49.599Z,13.20
2023-04-23T04:52:11.791Z,13.30
2023-04-23T04:53:35.995Z,13.20
2023-04-23T04:54:58.150Z,13.20
2023-04-23T04:56:20.325Z,13.20
2023-04-23T04:57:42.392Z,13.20
2023-04-23T04:59:04.503Z,13.20
2023-04-23T05:00:29.589Z,13.20
2023-04-23T05:01:51.729Z,13.20
2023-04-23T05:03:14.599Z,13.20
2023-04-23T05:04:36.810Z,13.20
2023-04-23T05:05:59.039Z,13.30
2023-04-23T05:07:21.078Z,13.30
2023-04-23T05:08:48.003Z,13.20
2023-04-23T05:10:10.812Z,13.30
2023-04-23T05:11:32.933Z,13.30
2023-04-23T05:12:56.934Z,13.30
2023-04-23T05:14:19.501Z,13.30
2023-04-23T05:15:41.545Z,13.30
2023-04-23T05:17:03.714Z,13.30
2023-04-23T05:18:25.723Z,13.30
2023-04-23T05:19:47.822Z,13.40
2023-04-23T05:21:10.278Z,13.40
2023-04-23T05:22:32.449Z,13.50
2023-04-23T05:23:55.495Z,13.60
2023-04-23T05:25:17.588Z,13.60
2023-04-23T05:26:39.713Z,13.70
2023-04-23T05:28:01.853Z,13.80
2023-04-23T05:29:23.931Z,13.90
2023-04-23T05:30:46.012Z,14.00
2023-04-23T05:32:08.038Z,14.00
2023-04-23T05:33:33.464Z,14.10
2023-04-23T05:34:59.995Z,14.20
2023-04-23T05:36:22.369Z,14.30
2023-04-23T05:37:44.428Z,14.40
2023-04-23T05:39:06.635Z,14.50
2023-04-23T05:40:28.827Z,14.50
2023-04-23T05:41:50.868Z,14.60
2023-04-23T05:43:13.255Z,14.60
2023-04-23T05:44:35.291Z,14.70
2023-04-23T05:45:57.421Z,14.70
2023-04-23T05:47:19.588Z,14.80
2023-04-23T05:48:41.701Z,14.80
2023-04-23T05:50:03.818Z,14.90
2023-04-23T05:51:25.894Z,14.90
2023-04-23T05:52:48.204Z,14.90
2023-04-23T05:54:10.456Z,14.90
2023-04-23T05:55:32.529Z,14.90
2023-04-23T05:56:54.873Z,14.90
2023-04-23T05:58:19.003Z,15.00
2023-04-23T05:59:41.159Z,15.00
2023-04-23T06:01:03.258Z,15.00
2023-04-23T06:02:25.481Z,15.10
2023-04-23T06:03:47.907Z,15.10
2023-04-23T06:05:10.573Z,15.20
2023-04-23T06:06:32.727Z,15.30
2023-04-23T06:07:54.749Z,15.40
2023-04-23T06:09:16.783Z,15.60
2023-04-23T06:10:38.816Z,15.70
2023-04-23T06:12:00.939Z,15.80
2023-04-23T06:13:22.974Z,15.90
2023-04-23T06:14:47.661Z,16.00
2023-04-23T06:16:10.331Z,16.10
2023-04-23T06:17:32.484Z,16.20
2023-04-23T06:18:56.275Z,16.20
2023-04-23T06:20:18.859Z,16.30
2023-04-23T06:21:40.903Z,16.30
2023-04-23T06:23:02.983Z,16.40
2023-04-23T06:24:25.042Z,16.40
2023-04-23T06:25:47.068Z,16.50
2023-04-23T06:27:09.096Z,16.60
2023-04-23T06:28:31.367Z,16.60
2023-04-23T06:29:53.412Z,16.70
2023-04-23T06:31:15.574Z,16.80
2023-04-23T06:32:37.758Z,16.80
2023-04-23T06:33:59.981Z,16.80
2023-04-23T06:35:22.048Z,16.90
2023-04-23T06:36:44.071Z,16.80
2023-04-23T06:38:06.312Z,16.80
2023-04-23T06:39:28.326Z,16.80
2023-04-23T06:40:50.590Z,16.90
2023-04-23T06:42:12.632Z,16.90
2023-04-23T06:43:34.778Z,16.90
2023-04-23T06:44:59.149Z,16.90
2023-04-23T06:46:21.279Z,17.00
2023-04-23T06:47:43.430Z,17.00
2023-04-23T06:49:05.883Z,17.00
2023-04-23T06:50:28.124Z,17.00
2023-04-23T06:51:50.192Z,17.00
2023-04-23T06:53:12.407Z,17.00
2023-04-23T06:54:34.468Z,17.00
2023-04-23T06:55:56.547Z,17.00
2023-04-23T06:57:18.761Z,17.00
2023-04-23T06:58:41.136Z,17.00
2023-04-23T07:00:03.470Z,17.00
2023-04-23T07:01:25.522Z,17.10
2023-04-23T07:02:47.653Z,17.20
2023-04-23T07:04:09.826Z,17.30
2023-04-23T07:05:31.896Z,17.30
2023-04-23T07:06:54.089Z,17.50
2023-04-23T07:08:16.220Z,17.50
2023-04-23T07:09:38.228Z,17.60
2023-04-23T07:11:00.263Z,17.70
2023-04-23T07:12:22.433Z,17.80
2023-04-23T07:13:44.485Z,17.90
2023-04-23T07:15:07.044Z,18.00
2023-04-23T07:16:33.356Z,18.00
2023-04-23T07:17:55.480Z,18.10
2023-04-23T07:19:17.502Z,18.10
2023-04-23T07:20:39.642Z,18.10
2023-04-23T07:22:01.659Z,18.00
2023-04-23T07:23:23.727Z,17.90
2023-04-23T07:24:45.913Z,17.90
2023-04-23T07:26:08.042Z,17.80
2023-04-23T07:27:30.271Z,17.80
2023-04-23T07:28:52.908Z,17.70
2023-04-23T07:30:15.588Z,17.70
2023-04-23T07:31:39.321Z,17.70
2023-04-23T07:33:01.571Z,17.60
2023-04-23T07:34:23.664Z,17.60
2023-04-23T07:35:45.903Z,17.60
2023-04-23T07:37:08.144Z,17.60
2023-04-23T07:38:31.573Z,17.50
2023-04-23T07:39:54.102Z,17.40
2023-04-23T07:41:16.324Z,17.30
2023-04-23T07:42:39.420Z,17.30
2023-04-23T07:44:01.595Z,17.30
2023-04-23T07:45:23.632Z,17.20
2023-04-23T07:46:45.742Z,17.20
2023-04-23T07:48:07.763Z,17.10
2023-04-23T07:49:29.818Z,17.00
2023-04-23T07:50:51.873Z,17.00
2023-04-23T07:52:14.048Z,16.90
2023-04-23T07:53:36.069Z,16.90
2023-04-23T07:54:58.067Z,16.90
2023-04-23T07:56:24.526Z,16.90
2023-04-23T07:57:46.569Z,16.80
2023-04-23T07:59:09.845Z,16.80
2023-04-23T08:00:33.059Z,16.70
2023-04-23T08:01:55.216Z,16.70
2023-04-23T08:03:17.455Z,16.60
2023-04-23T08:04:39.833Z,16.50
2023-04-23T08:06:02.279Z,16.50
2023-04-23T08:07:24.336Z,16.40
2023-04-23T08:08:46.347Z,16.30
2023-04-23T08:10:08.754Z,16.20
2023-04-23T08:11:30.763Z,16.10
2023-04-23T08:12:52.824Z,16.10
2023-04-23T08:14:15.140Z,16.00
2023-04-23T08:15:37.480Z,16.00
2023-04-23T08:16:59.543Z,15.90
2023-04-23T08:18:21.603Z,15.90
2023-04-23T08:19:43.830Z,15.80
2023-04-23T08:21:06.280Z,15.80
2023-04-23T08:22:28.461Z,15.80
2023-04-23T08:23:50.574Z,15.70
2023-04-23T08:25:13.312Z,15.60
2023-04-23T08:26:35.397Z,15.60
2023-04-23T08:27:57.425Z,15.60
2023-04-23T08:29:19.525Z,15.50
2023-04-23T08:30:41.597Z,15.40
2023-04-23T08:32:03.924Z,15.40
2023-04-23T08:33:26.062Z,15.40
2023-04-23T08:34:48.047Z,15.30
2023-04-23T08:36:10.151Z,15.30
2023-04-23T08:37:32.300Z,15.20
2023-04-23T08:38:54.472Z,15.20
2023-04-23T08:40:17.063Z,15.20
2023-04-23T08:41:44.110Z,15.10
2023-04-23T08:43:25.011Z,15.00
2023-04-23T08:44:47.315Z,15.00
2023-04-23T08:46:12.708Z,15.00
2023-04-23T08:47:36.149Z,15.10
2023-04-23T08:49:00.798Z,15.00
2023-04-23T08:50:23.294Z,15.00
2023-04-23T08:51:55.281Z,15.00
2023-04-23T08:53:20.750Z,15.00
2023-04-23T08:54:48.005Z,15.00
2023-04-23T08:56:10.179Z,15.00
2023-04-23T08:57:32.402Z,14.90
2023-04-23T08:58:56.864Z,14.80
2023-04-23T09:00:22.987Z,14.70
2023-04-23T09:01:45.879Z,14.50
2023-04-23T09:03:09.244Z,14.50
2023-04-23T09:04:31.650Z,14.40
2023-04-23T09:05:54.125Z,14.40
2023-04-23T09:07:17.684Z,14.40
2023-04-23T09:08:39.855Z,14.30
2023-04-23T09:10:03.079Z,14.30
2023-04-23T09:11:28.609Z,14.20
2023-04-23T09:12:50.776Z,14.10
2023-04-23T09:14:13.667Z,14.00
2023-04-23T09:15:39.492Z,13.90
2023-04-23T09:17:03.284Z,13.80
2023-04-23T09:18:25.364Z,13.80
2023-04-23T09:19:47.458Z,13.70
2023-04-23T09:21:09.839Z,13.60
2023-04-23T09:22:49.576Z,13.40
2023-04-23T09:24:12.308Z,13.30
2023-04-23T09:25:34.958Z,13.10
2023-04-23T09:26:58.412Z,13.00
2023-04-23T09:28:20.636Z,13.00
2023-04-23T09:29:44.724Z,12.90
2023-04-23T09:31:06.989Z,12.80
2023-04-23T09:32:35.667Z,12.70
2023-04-23T09:33:58.531Z,12.60
2023-04-23T09:35:21.116Z,12.50
2023-04-23T09:36:43.411Z,12.50
2023-04-23T09:38:08.149Z,12.50
2023-04-23T09:39:30.458Z,12.40
2023-04-23T09:40:52.633Z,12.40
2023-04-23T09:42:16.044Z,12.30
2023-04-23T09:43:41.745Z,12.20
2023-04-23T09:45:08.226Z,12.10
2023-04-23T09:46:48.841Z,12.10
2023-04-23T09:48:11.013Z,12.00
2023-04-23T09:49:33.139Z,12.00
2023-04-23T09:50:55.834Z,12.00
2023-04-23T09:52:18.451Z,12.00
2023-04-23T09:53:44.167Z,12.00
2023-04-23T09:55:06.907Z,12.00
2023-04-23T09:56:31.068Z,12.00
2023-04-23T09:57:53.383Z,12.10
2023-04-23T09:59:29.396Z,12.20
2023-04-23T10:01:11.164Z,12.30
2023-04-23T10:02:38.470Z,12.40
2023-04-23T10:04:01.027Z,12.50
2023-04-23T10:05:27.311Z,12.50
2023-04-23T10:07:17.200Z,12.50
2023-04-23T10:08:41.526Z,12.60
2023-04-23T10:10:04.065Z,12.60
2023-04-23T10:11:27.002Z,12.60
2023-04-23T10:12:56.921Z,12.70
2023-04-23T10:14:21.381Z,12.80
2023-04-23T10:15:47.514Z,13.00
2023-04-23T10:17:10.519Z,13.10
2023-04-23T10:18:33.499Z,13.20
2023-04-23T10:20:01.648Z,13.30
2023-04-23T10:21:33.960Z,13.40
2023-04-23T10:23:00.866Z,13.40
2023-04-23T10:24:28.790Z,13.30
2023-04-23T10:25:55.402Z,13.30
2023-04-23T10:27:28.420Z,13.30
2023-04-23T10:28:56.764Z,13.20
2023-04-23T10:30:20.431Z,13.10
2023-04-23T10:31:42.952Z,13.00
2023-04-23T10:33:15.711Z,13.00
2023-04-23T10:34:42.047Z,13.10
2023-04-23T10:36:04.663Z,13.10
2023-04-23T10:37:28.093Z,13.10
2023-04-23T10:38:57.857Z,13.10
2023-04-23T10:40:26.015Z,13.10
2023-04-23T10:41:49.033Z,13.10
2023-04-23T10:43:11.167Z,13.10
2023-04-23T10:46:27.962Z,13.10
2023-04-23T10:47:50.141Z,13.10
2023-04-23T10:49:16.658Z,13.20
2023-04-23T10:50:47.702Z,13.10
2023-04-23T10:52:23.557Z,13.10
2023-04-23T10:53:47.401Z,13.00
2023-04-23T10:55:17.823Z,13.00
2023-04-23T10:56:43.960Z,13.00
2023-04-23T10:58:08.356Z,13.00
2023-04-23T10:59:32.113Z,13.00
2023-04-23T11:00:54.570Z,13.00
2023-04-23T11:02:16.905Z,12.80
2023-04-23T11:03:44.620Z,12.70
2023-04-23T11:05:09.694Z,12.80
2023-04-23T11:06:51.766Z,12.90
2023-04-23T11:08:19.362Z,12.90
2023-04-23T11:09:48.333Z,12.90
2023-04-23T11:11:10.670Z,12.80
2023-04-23T11:12:33.478Z,12.70
2023-04-23T11:13:55.586Z,12.80
2023-04-23T11:15:19.731Z,12.80
2023-04-23T11:16:42.008Z,12.80
2023-04-23T11:18:05.064Z,12.80
2023-04-23T11:19:27.178Z,12.80
2023-04-23T11:20:51.322Z,12.80
2023-04-23T11:22:21.568Z,12.70
2023-04-23T11:23:46.335Z,12.70
2023-04-23T11:25:13.860Z,12.70
2023-04-23T11:26:37.770Z,12.60
2023-04-23T11:27:59.929Z,12.60
2023-04-23T11:29:24.540Z,12.60
2023-04-23T11:30:51.185Z,12.60
2023-04-23T11:32:15.865Z,12.60
2023-04-23T11:33:39.334Z,12.60
2023-04-23T11:35:05.002Z,12.70
2023-04-23T11:36:27.716Z,12.80
2023-04-23T11:37:50.316Z,12.90
2023-04-23T11:39:12.519Z,13.00
2023-04-23T11:40:34.737Z,13.00
2023-04-23T11:41:59.236Z,13.00
2023-04-23T11:43:21.370Z,12.90
2023-04-23T11:44:45.066Z,12.90
2023-04-23T11:46:07.249Z,12.90
2023-04-23T11:47:30.624Z,12.80
2023-04-23T11:48:52.857Z,12.80
2023-04-23T11:50:25.973Z,12.80
2023-04-23T11:51:48.551Z,12.90
2023-04-23T11:53:12.387Z,13.00
2023-04-23T11:54:34.850Z,13.20
2023-04-23T11:55:57.964Z,13.40
2023-04-23T11:57:21.756Z,13.40
2023-04-23T11:58:43.910Z,13.60
2023-04-23T12:00:16.847Z,13.70
2023-04-23T12:01:50.599Z,13.80
2023-04-23T12:03:14.015Z,13.80
2023-04-23T12:04:37.508Z,13.80
2023-04-23T12:06:01.789Z,13.90
2023-04-23T12:07:32.810Z,13.90
2023-04-23T12:08:54.875Z,14.10
2023-04-23T12:10:21.537Z,14.30
2023-04-23T12:11:45.517Z,14.40
2023-04-23T12:13:07.562Z,14.60
2023-04-23T12:14:30.794Z,15.00
2023-04-23T12:16:01.114Z,15.00
2023-04-23T12:17:23.235Z,14.90
2023-04-23T12:18:45.695Z,14.70
2023-04-23T12:20:13.155Z,14.80
2023-04-23T12:21:35.671Z,15.10
2023-04-23T12:23:08.145Z,15.40
2023-04-23T12:24:44.646Z,15.50
2023-04-23T12:26:15.248Z,15.60
2023-04-23T12:27:42.594Z,15.70
2023-04-23T12:29:07.990Z,16.00
2023-04-23T12:30:31.816Z,16.20
2023-04-23T12:31:57.797Z,16.00
2023-04-23T12:33:21.059Z,16.00
2023-04-23T12:34:53.919Z,16.00
2023-04-23T12:36:19.269Z,15.80
2023-04-23T12:37:41.434Z,15.60
2023-04-23T12:39:25.939Z,15.70
2023-04-23T12:40:48.139Z,15.80
2023-04-23T12:42:10.608Z,15.80
2023-04-23T12:43:32.696Z,15.90
2023-04-23T12:44:57.528Z,16.00
2023-04-23T12:46:19.636Z,16.10
2023-04-23T12:47:41.815Z,16.20
2023-04-23T12:49:03.959Z,16.10
2023-04-23T12:50:26.427Z,16.20
2023-04-23T12:51:48.799Z,16.10
2023-04-23T12:53:10.828Z,16.00
2023-04-23T12:54:37.907Z,15.80
2023-04-23T12:56:00.007Z,15.60
2023-04-23T12:57:23.326Z,15.50
2023-04-23T12:58:45.552Z,15.60
2023-04-23T13:00:09.032Z,15.70
2023-04-23T13:01:32.478Z,15.90
2023-04-23T13:02:56.226Z,16.10
2023-04-23T13:04:18.729Z,16.40
2023-04-23T13:05:41.215Z,16.60
2023-04-23T13:07:03.720Z,16.90
2023-04-23T13:08:25.799Z,17.20
2023-04-23T13:09:47.888Z,17.60
2023-04-23T13:11:09.924Z,17.80
2023-04-23T13:12:32.099Z,18.10
2023-04-23T13:13:54.413Z,18.20
2023-04-23T13:15:17.229Z,18.20
2023-04-23T13:16:41.030Z,18.30
2023-04-23T13:18:03.154Z,18.30
2023-04-23T13:19:25.682Z,18.30
2023-04-23T13:20:47.795Z,18.20
2023-04-23T13:22:10.165Z,18.10
2023-04-23T13:23:32.247Z,18.00
2023-04-23T13:24:57.010Z,17.90
2023-04-23T13:26:19.277Z,17.80
2023-04-23T13:27:40.722Z,17.90
2023-04-23T13:29:03.369Z,18.10
2023-04-23T13:30:25.585Z,18.20
2023-04-23T13:31:47.731Z,18.30
2023-04-23T13:33:09.830Z,18.40
2023-04-23T13:34:32.572Z,18.30
2023-04-23T13:35:56.428Z,18.20
2023-04-23T13:37:18.572Z,18.00
2023-04-23T13:38:40.673Z,17.70
2023-04-23T13:40:02.803Z,17.40
2023-04-23T13:41:24.998Z,17.00
2023-04-23T13:42:49.440Z,16.90
2023-04-23T13:44:13.483Z,16.80
2023-04-23T13:45:35.681Z,16.90
2023-04-23T13:46:58.756Z,16.90
2023-04-23T13:48:20.991Z,17.00
2023-04-23T13:49:43.830Z,17.20
2023-04-23T13:51:11.425Z,17.40
2023-04-23T13:52:43.866Z,17.60
2023-04-23T13:54:06.667Z,17.70
2023-04-23T13:55:28.825Z,17.80
2023-04-23T13:56:51.232Z,17.80
2023-04-23T13:58:13.388Z,17.90
2023-04-23T13:59:35.890Z,17.90
2023-04-23T14:00:58.057Z,18.10
2023-04-23T14:02:20.348Z,18.20
2023-04-23T14:03:42.555Z,18.20
2023-04-23T14:05:06.564Z,18.30
2023-04-23T14:06:28.705Z,18.40
2023-04-23T14:07:50.907Z,18.40
2023-04-23T14:09:12.943Z,18.30
2023-04-23T14:10:35.510Z,18.30
2023-04-23T14:11:57.673Z,18.40
2023-04-23T14:13:19.820Z,18.50
2023-04-23T14:14:43.154Z,18.50
2023-04-23T14:16:05.507Z,18.40
2023-04-23T14:17:27.613Z,18.20
2023-04-23T14:18:49.798Z,18.20
2023-04-23T14:20:15.474Z,18.10
2023-04-23T14:21:37.906Z,17.90
2023-04-23T14:23:27.957Z,17.80
2023-04-23T14:24:51.393Z,17.50
2023-04-23T14:26:47.517Z,17.40
2023-04-23T14:28:40.226Z,17.10
2023-04-23T14:30:05.384Z,16.80
2023-04-23T14:31:27.810Z,16.50
2023-04-23T14:32:51.025Z,16.30
2023-04-23T14:34:13.352Z,16.30
2023-04-23T14:35:43.040Z,16.40
2023-04-23T14:37:06.034Z,16.60
2023-04-23T14:38:28.204Z,16.80
2023-04-23T14:39:50.385Z,16.90
2023-04-23T14:41:12.441Z,17.10
2023-04-23T14:42:34.552Z,17.30
2023-04-23T14:43:56.572Z,17.30
2023-04-23T14:45:18.972Z,17.40
2023-04-23T14:46:41.060Z,17.40
2023-04-23T14:48:03.175Z,17.30
2023-04-23T14:49:25.289Z,17.30
2023-04-23T14:50:47.580Z,17.40
2023-04-23T14:52:09.638Z,17.50
2023-04-23T14:53:31.769Z,17.60
2023-04-23T14:54:55.858Z,17.80
2023-04-23T14:56:17.982Z,17.90
2023-04-23T14:57:40.103Z,17.90
2023-04-23T14:59:02.427Z,17.80
2023-04-23T15:00:24.595Z,17.60
2023-04-23T15:01:46.822Z,17.60
2023-04-23T15:03:11.046Z,17.70
2023-04-23T15:04:34.895Z,17.70
2023-04-23T15:05:56.978Z,17.70
2023-04-23T15:07:19.031Z,17.60
2023-04-23T15:08:41.082Z,17.70
2023-04-23T15:10:06.581Z,17.80
2023-04-23T15:11:28.792Z,17.90
2023-04-23T15:12:59.618Z,18.10
2023-04-23T15:14:28.106Z,18.20
2023-04-23T15:15:55.184Z,18.30
2023-04-23T15:17:17.747Z,18.30
2023-04-23T15:18:39.893Z,18.10
2023-04-23T15:20:02.056Z,17.90
2023-04-23T15:21:24.398Z,17.60
2023-04-23T15:22:49.725Z,17.60
2023-04-23T15:24:11.853Z,17.70
2023-04-23T15:25:34.540Z,17.90
2023-04-23T15:26:58.043Z,18.10
2023-04-23T15:28:20.165Z,18.30
2023-04-23T15:29:42.434Z,18.30
2023-04-23T15:31:05.767Z,18.40
2023-04-23T15:32:27.849Z,18.40
2023-04-23T15:33:50.077Z,18.30
2023-04-23T15:35:12.146Z,18.30
2023-04-23T15:36:35.510Z,18.40
2023-04-23T15:37:57.608Z,18.30
2023-04-23T15:39:19.752Z,18.10
2023-04-23T15:40:42.594Z,18.00
2023-04-23T15:42:05.667Z,17.80
2023-04-23T15:43:27.827Z,17.70
2023-04-23T15:44:50.699Z,17.70
2023-04-23T15:46:12.875Z,17.70
2023-04-23T15:47:35.309Z,17.70
2023-04-23T15:48:57.356Z,17.80
2023-04-23T15:50:25.051Z,17.80
2023-04-23T15:51:47.194Z,17.80
2023-04-23T15:53:09.583Z,17.80
2023-04-23T15:54:31.661Z,17.70
2023-04-23T15:55:53.807Z,17.70
2023-04-23T15:57:15.815Z,17.60
2023-04-23T15:58:37.893Z,17.50
2023-04-23T16:00:00.043Z,17.40
2023-04-23T16:01:23.679Z,17.40
2023-04-23T16:02:47.749Z,17.40
2023-04-23T16:04:11.737Z,17.30
2023-04-23T16:05:36.191Z,17.30
2023-04-23T16:06:58.290Z,17.20
2023-04-23T16:08:20.327Z,17.20
2023-04-23T16:09:42.655Z,17.20
2023-04-23T16:11:05.149Z,17.20
2023-04-23T16:12:27.237Z,17.20
2023-04-23T16:13:49.318Z,17.20
2023-04-23T16:16:39.783Z,17.10
2023-04-23T16:18:02.033Z,17.00
2023-04-23T16:19:24.176Z,16.90
2023-04-23T16:20:46.362Z,16.80
2023-04-23T16:22:08.378Z,16.70
2023-04-23T16:23:30.603Z,16.60
2023-04-23T16:24:52.610Z,16.50
2023-04-23T16:26:14.649Z,16.50
2023-04-23T16:27:37.823Z,16.30
2023-04-23T16:29:11.466Z,16.10
2023-04-23T16:30:42.055Z,15.90
2023-04-23T16:32:04.772Z,15.80
2023-04-23T16:33:27.349Z,15.70
2023-04-23T16:34:49.526Z,15.70
2023-04-23T16:36:14.436Z,15.60
2023-04-23T16:37:36.659Z,15.60
2023-04-23T16:38:59.200Z,15.60
2023-04-23T16:40:21.496Z,15.60
2023-04-23T16:41:43.724Z,15.50
2023-04-23T16:43:05.853Z,15.50
2023-04-23T16:44:28.029Z,15.50
2023-04-23T16:45:50.485Z,15.40
2023-04-23T16:47:12.624Z,15.40
2023-04-23T16:48:34.666Z,15.40
2023-04-23T16:49:56.835Z,15.50
2023-04-23T16:51:18.897Z,15.50
2023-04-23T16:52:40.956Z,15.50
2023-04-23T16:54:03.259Z,15.40
2023-04-23T16:55:25.367Z,15.40
2023-04-23T16:56:47.588Z,15.40
2023-04-23T16:58:10.177Z,15.40
2023-04-23T16:59:32.271Z,15.40
2023-04-23T17:00:54.504Z,15.40
2023-04-23T17:02:16.697Z,15.40
2023-04-23T17:03:39.328Z,15.40
2023-04-23T17:05:01.908Z,15.40
2023-04-23T17:06:29.632Z,15.30
2023-04-23T17:07:52.773Z,15.30
2023-04-23T17:09:15.129Z,15.30
2023-04-23T17:10:37.212Z,15.30
2023-04-23T17:11:59.586Z,15.30
2023-04-23T17:13:22.156Z,15.30
2023-04-23T17:14:44.451Z,15.20
2023-04-23T17:16:06.669Z,15.20
2023-04-23T17:17:28.908Z,15.20
2023-04-23T17:18:51.048Z,15.10
2023-04-23T17:20:13.118Z,15.10
2023-04-23T17:21:35.667Z,15.00
2023-04-23T17:22:57.887Z,15.00
2023-04-23T17:24:20.028Z,15.00
2023-04-23T17:25:42.180Z,15.00
2023-04-23T17:27:04.308Z,15.00
2023-04-23T17:28:26.397Z,15.00
2023-04-23T17:29:48.505Z,15.00
2023-04-23T17:31:11.226Z,15.00
2023-04-23T17:32:33.627Z,15.00
2023-04-23T17:33:57.236Z,15.00
2023-04-23T17:35:19.353Z,15.00
2023-04-23T17:36:41.614Z,14.90
2023-04-23T17:38:03.705Z,15.00
2023-04-23T17:39:25.962Z,15.00
2023-04-23T17:40:49.841Z,15.00
2023-04-23T17:42:13.398Z,14.90
2023-04-23T17:43:35.547Z,14.90
2023-04-23T17:44:57.859Z,14.80
2023-04-23T17:46:20.117Z,14.80
2023-04-23T17:47:42.333Z,14.70
2023-04-23T17:49:04.443Z,14.70
2023-04-23T17:50:28.278Z,14.70
2023-04-23T17:51:50.554Z,14.60
2023-04-23T17:53:12.780Z,14.50
2023-04-23T17:54:34.984Z,14.50
2023-04-23T17:56:02.480Z,14.40
2023-04-23T17:57:24.607Z,14.30
2023-04-23T17:58:46.866Z,14.30
2023-04-23T18:00:09.830Z,14.20